createdAt,value
2023-04-15T00:01:08.430Z,99896.88
2023-04-15T00:03:36.934Z,99897.44
2023-04-15T00:06:05.075Z,99897.03
2023-04-15T00:08:33.208Z,99898.97
2023-04-15T00:11:03.039Z,99898.13
2023-04-15T00:13:32.529Z,99900.34
2023-04-15T00:16:00.744Z,99900.75
2023-04-15T00:18:29.573Z,99895.50
2023-04-15T00:20:57.355Z,99900.31
2023-04-15T00:23:25.288Z,99902.00
2023-04-15T00:25:53.054Z,99897.00
2023-04-15T00:28:20.974Z,99898.66
2023-04-15T00:30:50.101Z,99894.09
2023-04-15T00:33:18.268Z,99892.03
2023-04-15T00:35:46.117Z,99902.56
2023-04-15T00:38:13.818Z,99901.59
2023-04-15T00:40:43.530Z,99896.72
2023-04-15T00:43:11.342Z,99893.00
2023-04-15T00:45:39.210Z,99897.56
2023-04-15T00:48:09.502Z,99901.03
2023-04-15T00:50:37.184Z,99896.16
2023-04-15T00:53:06.177Z,99900.72
2023-04-15T00:55:33.880Z,99891.72
2023-04-15T00:58:01.766Z,99890.19
2023-04-15T01:00:30.329Z,99899.50
2023-04-15T01:02:59.950Z,99892.56
2023-04-15T01:05:30.259Z,99895.06
2023-04-15T01:07:58.017Z,99899.75
2023-04-15T01:10:25.842Z,99893.66
2023-04-15T01:12:53.570Z,99893.91
2023-04-15T01:15:21.884Z,99895.31
2023-04-15T01:17:50.155Z,99887.28
2023-04-15T01:20:18.176Z,99891.72
2023-04-15T01:22:47.945Z,99892.97
2023-04-15T01:25:20.233Z,99890.59
2023-04-15T01:27:49.458Z,99888.91
2023-04-15T01:30:17.472Z,99887.25
2023-04-15T01:32:45.304Z,99884.03
2023-04-15T01:35:13.117Z,99892.19
2023-04-15T01:37:41.085Z,99894.97
2023-04-15T01:40:09.832Z,99902.72
2023-04-15T01:42:38.716Z,99891.22
2023-04-15T01:45:09.249Z,99898.28
2023-04-15T01:47:38.824Z,99895.53
2023-04-15T01:50:08.488Z,99887.50
2023-04-15T01:52:36.212Z,99894.16
2023-04-15T01:55:04.324Z,99893.16
2023-04-15T01:57:32.502Z,99890.53
2023-04-15T02:00:00.297Z,99892.63
2023-04-15T02:02:29.510Z,99891.69
2023-04-15T02:04:57.473Z,99886.84
2023-04-15T02:07:25.504Z,99877.03
2023-04-15T02:09:53.294Z,99881.47
2023-04-15T02:12:21.125Z,99886.16
2023-04-15T02:14:48.876Z,99882.94
2023-04-15T02:17:17.383Z,99891.16
2023-04-15T02:19:46.490Z,99893.06
2023-04-15T02:22:18.401Z,99892.25
2023-04-15T02:24:47.492Z,99891.69
2023-04-15T02:27:17.978Z,99899.00
2023-04-15T02:29:45.895Z,99894.19
2023-04-15T02:32:14.043Z,99885.44
2023-04-15T02:34:42.791Z,99895.53
2023-04-15T02:37:13.473Z,99898.72
2023-04-15T02:39:41.305Z,99896.59
2023-04-15T02:42:09.107Z,99904.06
2023-04-15T02:44:37.677Z,99906.28
2023-04-15T02:47:07.413Z,99906.53
2023-04-15T02:49:35.223Z,99915.38
2023-04-15T02:52:03.013Z,99912.19
2023-04-15T02:54:33.904Z,99909.16
2023-04-15T02:57:02.096Z,99919.56
2023-04-15T02:59:30.122Z,99911.78
2023-04-15T03:02:00.874Z,99918.53
2023-04-15T03:04:30.163Z,99913.41
2023-04-15T03:06:57.893Z,99922.41
2023-04-15T03:09:26.712Z,99920.88
2023-04-15T03:11:56.948Z,99921.97
2023-04-15T03:14:25.738Z,99923.31
2023-04-15T03:16:53.691Z,99925.22
2023-04-15T03:19:21.468Z,99926.06
2023-04-15T03:21:49.259Z,99933.78
2023-04-15T03:24:17.459Z,99932.94
2023-04-15T03:26:46.392Z,99927.19
2023-04-15T03:29:18.757Z,99933.28
2023-04-15T03:31:47.226Z,99930.06
2023-04-15T03:34:15.025Z,99941.28
2023-04-15T03:36:42.891Z,99939.03
2023-04-15T03:39:10.947Z,99938.06
2023-04-15T03:41:38.610Z,99939.28
2023-04-15T03:44:06.661Z,99938.16
2023-04-15T03:46:35.840Z,99939.28
2023-04-15T03:49:04.077Z,99940.38
2023-04-15T03:51:32.313Z,99943.59
2023-04-15T03:53:59.972Z,99945.63
2023-04-15T03:56:27.765Z,99930.06
2023-04-15T03:58:55.638Z,99942.00
2023-04-15T04:01:23.922Z,99947.00
2023-04-15T04:03:53.207Z,99952.38
2023-04-15T04:06:21.203Z,99945.34
2023-04-15T04:08:48.961Z,99952.25
2023-04-15T04:11:17.213Z,99953.59
2023-04-15T04:13:45.094Z,99954.44
2023-04-15T04:16:12.958Z,99951.53
2023-04-15T04:18:40.902Z,99962.78
2023-04-15T04:21:09.965Z,99961.94
2023-04-15T04:23:37.803Z,99959.81
2023-04-15T04:26:05.519Z,99961.59
2023-04-15T04:28:33.385Z,99961.84
2023-04-15T04:31:01.242Z,99966.41
2023-04-15T04:33:29.096Z,99961.66
2023-04-15T04:35:56.769Z,99959.75
2023-04-15T04:38:25.973Z,99970.84
2023-04-15T04:40:53.767Z,99967.63
2023-04-15T04:43:21.599Z,99963.81
2023-04-15T04:45:49.352Z,99971.94
2023-04-15T04:48:17.422Z,99963.72
2023-04-15T04:50:46.982Z,99971.63
2023-04-15T04:53:14.857Z,99966.00
2023-04-15T04:55:44.017Z,99976.09
2023-04-15T04:58:11.799Z,99982.56
2023-04-15T05:00:39.768Z,99988.66
2023-04-15T05:03:07.695Z,99993.06
2023-04-15T05:05:36.946Z,100000.00
2023-04-15T05:08:04.805Z,100000.84
2023-04-15T05:10:32.802Z,99998.91
2023-04-15T05:13:02.075Z,100005.81
2023-04-15T05:15:29.857Z,100006.94
2023-04-15T05:17:57.624Z,100009.44
2023-04-15T05:20:25.454Z,100020.19
2023-04-15T05:22:53.148Z,100020.19
2023-04-15T05:25:21.277Z,100018.53
2023-04-15T05:27:49.075Z,100011.59
2023-04-15T05:30:18.312Z,100012.91
2023-04-15T05:32:46.180Z,100019.34
2023-04-15T05:35:13.980Z,100008.97
2023-04-15T05:37:41.998Z,100021.47
2023-04-15T05:40:10.654Z,100003.03
2023-04-15T05:42:38.574Z,100024.47
2023-04-15T05:45:09.317Z,100023.66
2023-04-15T05:47:38.529Z,100025.19
2023-04-15T05:50:07.278Z,100035.72
2023-04-15T05:52:35.029Z,100037.81
2023-04-15T05:55:02.845Z,100036.38
2023-04-15T05:57:30.565Z,100035.84
2023-04-15T05:59:58.494Z,100036.06
2023-04-15T06:02:26.605Z,100041.25
2023-04-15T06:04:55.919Z,100043.69
2023-04-15T06:07:23.710Z,100046.38
2023-04-15T06:09:51.574Z,100051.69
2023-04-15T06:12:19.569Z,100046.19
2023-04-15T06:14:47.651Z,100057.13
2023-04-15T06:17:18.477Z,100056.78
2023-04-15T06:19:46.343Z,100067.06
2023-04-15T06:22:15.767Z,100063.34
2023-04-15T06:24:43.560Z,100067.13
2023-04-15T06:27:11.408Z,100068.25
2023-04-15T06:29:39.275Z,100069.41
2023-04-15T06:32:07.753Z,100072.44
2023-04-15T06:34:35.652Z,100080.53
2023-04-15T06:37:06.142Z,100080.00
2023-04-15T06:39:35.545Z,100091.41
2023-04-15T06:42:04.555Z,100086.44
2023-04-15T06:44:33.869Z,100084.81
2023-04-15T06:47:03.063Z,100094.38
2023-04-15T06:49:30.959Z,100091.78
2023-04-15T06:51:58.776Z,100098.19
2023-04-15T06:54:26.596Z,100098.63
2023-04-15T06:56:55.760Z,100102.38
2023-04-15T06:59:24.126Z,100102.81
2023-04-15T07:01:51.952Z,100108.22
2023-04-15T07:04:20.472Z,100108.66
2023-04-15T07:06:48.251Z,100115.44
2023-04-15T07:09:15.987Z,100120.84
2023-04-15T07:11:43.784Z,100119.91
2023-04-15T07:14:12.987Z,100119.91
2023-04-15T07:16:40.715Z,100119.63
2023-04-15T07:19:08.445Z,100128.63
2023-04-15T07:21:36.240Z,100129.88
2023-04-15T07:24:03.970Z,100119.75
2023-04-15T07:26:31.825Z,100125.41
2023-04-15T07:28:59.930Z,100122.09
2023-04-15T07:31:29.500Z,100135.94
2023-04-15T07:33:57.366Z,100130.38
2023-04-15T07:36:25.157Z,100134.81
2023-04-15T07:38:53.140Z,100142.88
2023-04-15T07:41:20.974Z,100143.94
2023-04-15T07:43:48.930Z,100141.72
2023-04-15T07:46:16.713Z,100150.03
2023-04-15T07:48:46.440Z,100150.59
2023-04-15T07:51:14.218Z,100156.72
2023-04-15T07:53:42.312Z,100156.44
2023-04-15T07:56:09.984Z,100158.50
2023-04-15T07:58:37.681Z,100162.22
2023-04-15T08:01:06.001Z,100168.59
2023-04-15T08:03:34.115Z,100165.38
2023-04-15T08:06:03.368Z,100172.72
2023-04-15T08:08:31.196Z,100164.88
2023-04-15T08:10:59.381Z,100172.38
2023-04-15T08:13:27.817Z,100181.84
2023-04-15T08:16:16.187Z,100183.22
2023-04-15T08:18:44.015Z,100192.34
2023-04-15T08:21:13.319Z,100192.34
2023-04-15T08:23:41.220Z,100198.75
2023-04-15T08:26:09.696Z,100208.56
2023-04-15T08:28:39.487Z,100206.59
2023-04-15T08:31:07.589Z,100200.19
2023-04-15T08:33:35.317Z,100209.50
2023-04-15T08:36:03.368Z,100209.66
2023-04-15T08:38:32.521Z,100213.97
2023-04-15T08:41:01.794Z,100203.97
2023-04-15T08:43:35.520Z,100219.56
2023-04-15T08:46:05.321Z,100222.31
2023-04-15T08:48:34.525Z,100225.31
2023-04-15T08:51:03.103Z,100216.84
2023-04-15T08:53:32.686Z,100232.00
2023-04-15T08:56:03.542Z,100232.13
2023-04-15T08:58:31.467Z,100231.69
2023-04-15T09:00:59.928Z,100228.56
2023-04-15T09:03:29.445Z,100229.13
2023-04-15T09:05:58.327Z,100241.91
2023-04-15T09:08:26.277Z,100240.78
2023-04-15T09:10:56.404Z,100240.50
2023-04-15T09:13:24.274Z,100241.25
2023-04-15T09:15:52.296Z,100245.41
2023-04-15T09:18:29.734Z,100248.56
2023-04-15T09:20:57.545Z,100256.53
2023-04-15T09:23:25.342Z,100256.53
2023-04-15T09:25:53.216Z,100259.06
2023-04-15T09:28:27.382Z,100257.94
2023-04-15T09:30:57.754Z,100264.97
2023-04-15T09:33:27.063Z,100262.34
2023-04-15T09:36:00.026Z,100266.19
2023-04-15T09:38:28.941Z,100270.03
2023-04-15T09:40:57.123Z,100276.72
2023-04-15T09:43:38.866Z,100278.88
2023-04-15T09:46:06.779Z,100282.47
2023-04-15T09:48:34.518Z,100285.16
2023-04-15T09:51:02.837Z,100281.75
2023-04-15T09:53:31.921Z,100298.50
2023-04-15T09:56:01.414Z,100284.56
2023-04-15T09:58:32.268Z,100290.41
2023-04-15T10:01:01.869Z,100278.28
2023-04-15T10:03:31.636Z,100292.88
2023-04-15T10:06:00.875Z,100299.19
2023-04-15T10:08:31.048Z,100303.47
2023-04-15T10:10:59.194Z,100310.81
2023-04-15T10:13:28.935Z,100303.69
2023-04-15T10:16:00.520Z,100316.41
2023-04-15T10:18:29.750Z,100313.13
2023-04-15T10:21:00.558Z,100312.59
2023-04-15T10:23:28.888Z,100304.34
2023-04-15T10:25:58.512Z,100305.19
2023-04-15T10:28:27.384Z,100322.00
2023-04-15T10:30:55.158Z,100316.09
2023-04-15T10:33:26.696Z,100314.56
2023-04-15T10:35:57.125Z,100318.19
2023-04-15T10:38:36.117Z,100317.75
2023-04-15T10:41:20.209Z,100316.78
2023-04-15T10:43:53.759Z,100320.84
2023-04-15T10:46:24.077Z,100324.16
2023-04-15T10:48:55.012Z,100326.13
2023-04-15T10:51:30.913Z,100329.41
2023-04-15T10:53:59.934Z,100338.16
2023-04-15T10:56:29.757Z,100334.59
2023-04-15T10:59:00.365Z,100337.06
2023-04-15T11:01:51.459Z,100333.03
2023-04-15T11:04:52.482Z,100330.06
2023-04-15T11:07:39.576Z,100340.00
2023-04-15T11:10:58.802Z,100342.44
2023-04-15T11:13:30.499Z,100342.44
2023-04-15T11:16:03.260Z,100335.00
2023-04-15T11:18:32.966Z,100343.34
2023-04-15T11:21:03.815Z,100351.28
2023-04-15T11:23:34.868Z,100337.97
2023-04-15T11:26:05.598Z,100348.25
2023-04-15T11:28:35.008Z,100349.56
2023-04-15T11:31:11.889Z,100344.22
2023-04-15T11:33:46.097Z,100351.81
2023-04-15T11:36:14.267Z,100356.94
2023-04-15T11:38:44.308Z,100352.78
2023-04-15T11:41:12.700Z,100354.22
2023-04-15T11:43:42.569Z,100371.09
2023-04-15T11:46:10.612Z,100375.25
2023-04-15T11:48:42.818Z,100375.69
2023-04-15T11:51:10.913Z,100381.00
2023-04-15T11:53:41.155Z,100376.00
2023-04-15T11:56:10.598Z,100384.19
2023-04-15T11:58:39.732Z,100394.47
2023-04-15T12:01:08.847Z,100394.09
2023-04-15T12:03:41.692Z,100391.59
2023-04-15T12:06:19.399Z,100408.28
2023-04-15T12:08:58.346Z,100390.66
2023-04-15T12:11:31.651Z,100406.47
2023-04-15T12:14:03.854Z,100417.63
2023-04-15T12:16:37.215Z,100423.31
2023-04-15T12:19:19.310Z,100416.66
2023-04-15T12:21:49.264Z,100429.84
2023-04-15T12:24:20.948Z,100429.09
2023-04-15T12:26:50.564Z,100432.03
2023-04-15T12:29:18.887Z,100429.09
2023-04-15T12:31:52.966Z,100436.56
2023-04-15T12:34:27.975Z,100442.47
2023-04-15T12:36:56.374Z,100448.38
2023-04-15T12:39:25.206Z,100463.16
2023-04-15T12:41:53.437Z,100456.75
2023-04-15T12:44:23.986Z,100456.75
2023-04-15T12:46:54.433Z,100463.38
2023-04-15T12:49:23.030Z,100466.00
2023-04-15T12:51:52.740Z,100466.59
2023-04-15T12:54:21.304Z,100470.66
2023-04-15T12:56:51.060Z,100478.38
2023-04-15T12:59:19.573Z,100475.03
2023-04-15T13:01:47.864Z,100490.66
2023-04-15T13:04:17.395Z,100490.94
2023-04-15T13:06:45.456Z,100492.59
2023-04-15T13:09:13.197Z,100503.50
2023-04-15T13:11:41.346Z,100500.16
2023-04-15T13:14:11.449Z,100500.44
2023-04-15T13:16:39.751Z,100513.53
2023-04-15T13:19:07.657Z,100510.75
2023-04-15T13:21:37.003Z,100518.84
2023-04-15T13:24:07.230Z,100518.00
2023-04-15T13:26:35.976Z,100524.97
2023-04-15T13:29:05.062Z,100526.91
2023-04-15T13:31:32.929Z,100528.72
2023-04-15T13:34:00.831Z,100534.34
2023-04-15T13:36:28.551Z,100534.78
2023-04-15T13:38:58.357Z,100529.75
2023-04-15T13:41:27.423Z,100541.75
2023-04-15T13:43:55.099Z,100537.56
2023-04-15T13:46:22.988Z,100547.31
2023-04-15T13:48:50.881Z,100539.09
2023-04-15T13:51:18.610Z,100548.84
2023-04-15T13:53:46.345Z,100545.19
2023-04-15T13:56:15.509Z,100542.72
2023-04-15T13:58:43.220Z,100555.41
2023-04-15T14:01:14.461Z,100551.59
2023-04-15T14:03:42.431Z,100557.16
2023-04-15T14:06:10.537Z,100563.16
2023-04-15T14:08:38.296Z,100560.22
2023-04-15T14:11:07.424Z,100568.97
2023-04-15T14:13:36.885Z,100568.69
2023-04-15T14:16:04.875Z,100571.47
2023-04-15T14:18:32.626Z,100574.06
2023-04-15T14:21:00.366Z,100567.31
2023-04-15T14:23:28.208Z,100581.94
2023-04-15T14:25:56.180Z,100575.19
2023-04-15T14:28:23.848Z,100574.34
2023-04-15T14:30:53.417Z,100572.53
2023-04-15T14:33:21.233Z,100580.06
2023-04-15T14:35:53.570Z,100575.09
2023-04-15T14:38:22.831Z,100581.00
2023-04-15T14:40:50.588Z,100585.47
2023-04-15T14:43:18.345Z,100588.53
2023-04-15T14:45:46.271Z,100592.75
2023-04-15T14:48:15.657Z,100599.19
2023-04-15T14:50:43.520Z,100605.88
2023-04-15T14:53:11.252Z,100600.56
2023-04-15T14:55:39.027Z,100611.13
2023-04-15T14:58:08.167Z,100607.47
2023-04-15T15:00:36.071Z,100605.94
2023-04-15T15:03:03.979Z,100612.13
2023-04-15T15:05:33.578Z,100608.72
2023-04-15T15:08:01.463Z,100620.72
2023-04-15T15:10:39.525Z,100623.41
2023-04-15T15:13:16.815Z,100620.06
2023-04-15T15:15:44.721Z,100627.06
2023-04-15T15:18:12.595Z,100627.47
2023-04-15T15:20:41.836Z,100635.44
2023-04-15T15:23:09.589Z,100640.16
2023-04-15T15:25:37.446Z,100630.69
2023-04-15T15:28:05.605Z,100639.03
2023-04-15T15:30:33.455Z,100640.69
2023-04-15T15:33:01.222Z,100647.41
2023-04-15T15:35:29.107Z,100649.38
2023-04-15T15:37:58.219Z,100651.31
2023-04-15T15:40:25.906Z,100657.72
2023-04-15T15:42:53.847Z,100651.31
2023-04-15T15:45:21.682Z,100663.00
2023-04-15T15:47:49.576Z,100665.66
2023-04-15T15:50:17.366Z,100665.53
2023-04-15T15:52:45.223Z,100664.56
2023-04-15T15:55:14.479Z,100668.31
2023-04-15T15:57:42.254Z,100664.69
2023-04-15T16:00:12.855Z,100674.00
2023-04-15T16:05:12.402Z,100689.06
2023-04-15T16:07:40.154Z,100688.91
2023-04-15T16:10:08.916Z,100694.47
2023-04-15T16:12:38.017Z,100689.47
2023-04-15T16:15:06.777Z,100688.63
2023-04-15T16:17:34.808Z,100693.91
2023-04-15T16:20:05.551Z,100696.56
2023-04-15T16:22:34.222Z,100697.78
2023-04-15T16:25:02.608Z,100706.69
2023-04-15T16:27:30.342Z,100706.44
2023-04-15T16:29:59.432Z,100717.84
2023-04-15T16:32:27.642Z,100715.19
2023-04-15T16:34:55.507Z,100707.25
2023-04-15T16:37:23.301Z,100723.13
2023-04-15T16:39:54.044Z,100727.13
2023-04-15T16:42:21.888Z,100730.47
2023-04-15T16:44:49.649Z,100731.59
2023-04-15T16:47:18.733Z,100747.56
2023-04-15T16:49:46.408Z,100736.16
2023-04-15T16:52:14.437Z,100742.28
2023-04-15T16:54:42.162Z,100745.72
2023-04-15T16:57:10.155Z,100744.19
2023-04-15T16:59:38.986Z,100746.41
2023-04-15T17:02:06.807Z,100752.50
2023-04-15T17:04:35.996Z,100747.69
2023-04-15T17:07:04.055Z,100760.91
2023-04-15T17:09:31.876Z,100754.31
2023-04-15T17:11:59.741Z,100757.59
2023-04-15T17:14:28.779Z,100761.50
2023-04-15T17:16:56.631Z,100766.78
2023-04-15T17:19:24.533Z,100769.09
2023-04-15T17:21:54.931Z,100768.41
2023-04-15T17:24:23.041Z,100766.09
2023-04-15T17:26:51.043Z,100771.94
2023-04-15T17:29:18.796Z,100768.47
2023-04-15T17:31:46.750Z,100779.19
2023-04-15T17:34:15.844Z,100783.09
2023-04-15T17:36:43.993Z,100790.59
2023-04-15T17:39:14.997Z,100784.66
2023-04-15T17:41:42.980Z,100789.75
2023-04-15T17:44:10.976Z,100793.03
2023-04-15T17:46:38.769Z,100789.16
2023-04-15T17:49:06.891Z,100801.41
2023-04-15T17:51:34.719Z,100808.63
2023-04-15T17:54:08.396Z,100806.16
2023-04-15T17:56:37.521Z,100806.72
2023-04-15T17:59:06.342Z,100812.97
2023-04-15T18:01:34.157Z,100814.50
2023-04-15T18:04:02.101Z,100815.59
2023-04-15T18:06:30.991Z,100822.81
2023-04-15T18:08:58.720Z,100821.09
2023-04-15T18:11:26.484Z,100831.53
2023-04-15T18:13:55.576Z,100834.69
2023-04-15T18:16:23.688Z,100826.28
2023-04-15T18:18:52.241Z,100847.44
2023-04-15T18:21:19.969Z,100859.97
2023-04-15T18:23:47.675Z,100858.63
2023-04-15T18:26:15.616Z,100871.00
2023-04-15T18:28:43.332Z,100863.69
2023-04-15T18:31:12.426Z,100870.31
2023-04-15T18:33:40.252Z,100871.72
2023-04-15T18:36:08.042Z,100867.75
2023-04-15T18:38:36.017Z,100873.63
2023-04-15T18:41:05.370Z,100886.19
2023-04-15T18:43:33.284Z,100876.19
2023-04-15T18:46:01.851Z,100881.81
2023-04-15T18:48:31.138Z,100900.44
2023-04-15T18:50:58.884Z,100897.91
2023-04-15T18:53:27.955Z,100902.09
2023-04-15T18:55:56.236Z,100907.31
2023-04-15T18:58:24.080Z,100901.06
2023-04-15T19:00:51.874Z,100917.75
2023-04-15T19:03:19.838Z,100908.56
2023-04-15T19:05:49.034Z,100899.66
2023-04-15T19:08:17.021Z,100914.28
2023-04-15T19:10:44.830Z,100920.28
2023-04-15T19:13:12.929Z,100919.13
2023-04-15T19:15:40.677Z,100928.59
2023-04-15T19:18:10.509Z,100926.78
2023-04-15T19:20:40.238Z,100923.59
2023-04-15T19:23:09.575Z,100926.91
2023-04-15T19:25:38.727Z,100932.81
2023-04-15T19:28:06.808Z,100932.19
2023-04-15T19:30:34.685Z,100935.69
2023-04-15T19:33:02.502Z,100941.47
2023-04-15T19:35:30.454Z,100953.81
2023-04-15T19:37:58.231Z,100953.00
2023-04-15T19:40:27.447Z,100946.03
2023-04-15T19:42:55.305Z,100958.88
2023-04-15T19:45:23.266Z,100964.75
2023-04-15T19:47:51.119Z,100964.97
2023-04-15T19:50:24.472Z,100962.72
2023-04-15T19:52:52.481Z,100967.03
2023-04-15T19:55:20.424Z,100969.53
2023-04-15T19:57:49.601Z,100976.38
2023-04-15T20:00:17.467Z,100977.22
2023-04-15T20:02:45.515Z,100977.47
2023-04-15T20:05:13.908Z,100974.59
2023-04-15T20:07:42.483Z,100977.56
2023-04-15T20:10:13.229Z,100974.94
2023-04-15T20:12:50.465Z,100987.41
2023-04-15T20:15:23.723Z,100986.09
2023-04-15T20:17:51.808Z,100985.38
2023-04-15T20:20:20.012Z,100992.47
2023-04-15T20:22:47.768Z,100991.63
2023-04-15T20:25:15.820Z,100994.25
2023-04-15T20:27:43.565Z,100994.50
2023-04-15T20:30:12.116Z,101002.78
2023-04-15T20:32:41.191Z,100993.53
2023-04-15T20:35:10.036Z,101000.09
2023-04-15T20:37:40.377Z,100996.88
2023-04-15T20:40:09.441Z,100993.88
2023-04-15T20:42:37.897Z,100985.38
2023-04-15T20:45:07.063Z,100999.25
2023-04-15T20:47:37.983Z,100998.69
2023-04-15T20:50:10.476Z,101005.88
2023-04-15T20:52:41.239Z,101007.19
2023-04-15T20:55:09.823Z,101008.75
2023-04-15T20:57:37.563Z,101009.25
2023-04-15T21:00:06.529Z,101001.44
2023-04-15T21:02:35.569Z,101001.44
2023-04-15T21:05:03.686Z,101000.72
2023-04-15T21:07:32.906Z,101004.69
2023-04-15T21:10:00.714Z,101006.00
2023-04-15T21:12:28.530Z,101006.97
2023-04-15T21:14:56.267Z,101006.97
2023-04-15T21:17:24.003Z,101005.16
2023-04-15T21:19:51.788Z,101011.66
2023-04-15T21:22:19.536Z,101015.38
2023-04-15T21:24:49.613Z,101021.59
2023-04-15T21:27:17.317Z,101018.47
2023-04-15T21:29:45.475Z,101029.28
2023-04-15T21:32:13.239Z,101027.94
2023-04-15T21:34:41.045Z,101030.72
2023-04-15T21:37:08.794Z,101033.97
2023-04-15T21:39:36.534Z,101040.19
2023-04-15T21:42:05.864Z,101046.09
2023-04-15T21:44:33.624Z,101048.97
2023-04-15T21:47:01.987Z,101050.88
2023-04-15T21:49:30.131Z,101051.25
2023-04-15T21:52:01.264Z,101048.22
2023-04-15T21:54:31.017Z,101055.91
2023-04-15T21:56:58.720Z,101050.19
2023-04-15T21:59:27.740Z,101056.53
2023-04-15T22:01:55.652Z,101058.56
2023-04-15T22:04:23.571Z,101072.38
2023-04-15T22:06:52.226Z,101068.03
2023-04-15T22:09:19.991Z,101065.97
2023-04-15T22:11:48.386Z,101066.97
2023-04-15T22:14:16.266Z,101068.03
2023-04-15T22:16:45.713Z,101066.97
2023-04-15T22:19:13.483Z,101065.06
2023-04-15T22:21:41.157Z,101074.50
2023-04-15T22:24:32.973Z,101076.69
2023-04-15T22:26:56.788Z,101078.50
2023-04-15T22:29:24.451Z,101075.84
2023-04-15T22:31:54.639Z,101080.91
2023-04-15T22:34:22.459Z,101077.28
2023-04-15T22:36:50.797Z,101082.81
2023-04-15T22:39:19.369Z,101081.38
2023-04-15T22:41:47.856Z,101096.25
2023-04-15T22:44:15.758Z,101094.34
2023-04-15T22:46:43.839Z,101088.22
2023-04-15T22:49:13.033Z,101092.44
2023-04-15T22:51:40.780Z,101087.88
2023-04-15T22:54:08.551Z,101096.88
2023-04-15T22:56:36.256Z,101096.66
2023-04-15T22:59:04.022Z,101097.59
2023-04-15T23:01:32.383Z,101106.38
2023-04-15T23:04:05.902Z,101110.19
2023-04-15T23:06:49.321Z,101110.19
2023-04-15T23:09:17.108Z,101113.16
2023-04-15T23:11:44.851Z,101107.53
2023-04-15T23:14:12.550Z,101105.84
2023-04-15T23:16:40.378Z,101109.03
2023-04-15T23:19:08.404Z,101106.78
2023-04-15T23:21:36.565Z,101109.44
2023-04-15T23:24:06.036Z,101114.72
2023-04-15T23:26:33.720Z,101116.63
2023-04-15T23:29:01.483Z,101116.97
2023-04-15T23:31:29.305Z,101124.31
2023-04-15T23:33:57.087Z,101123.81
2023-04-15T23:36:24.850Z,101121.06
2023-04-15T23:38:52.576Z,101119.13
2023-04-15T23:41:21.693Z,101124.75
2023-04-15T23:43:49.747Z,101127.63
2023-04-15T23:46:17.822Z,101121.91
2023-04-15T23:48:47.669Z,101130.31
2023-04-15T23:51:15.631Z,101130.78
2023-04-15T23:53:43.386Z,101131.50
2023-04-15T23:56:11.216Z,101135.13
2023-04-15T23:58:40.367Z,101125.19
